sensor_id;sensor_type;location;lat;lon;timestamp;P1;durP1;ratioP1;P2;durP2;ratioP2
25073;SDS011;13066;52.042;5.648;2022-12-18T00:01:27;76.32;;;26.90;;
25073;SDS011;13066;52.042;5.648;2022-12-18T00:03:57;74.40;;;25.20;;
25073;SDS011;13066;52.042;5.648;2022-12-18T00:06:27;77.47;;;27.05;;
25073;SDS011;13066;52.042;5.648;2022-12-18T00:08:56;72.75;;;27.17;;
25073;SDS011;13066;52.042;5.648;2022-12-18T00:11:26;75.90;;;28.17;;
25073;SDS011;13066;52.042;5.648;2022-12-18T00:13:56;71.93;;;26.95;;
25073;SDS011;13066;52.042;5.648;2022-12-18T00:16:27;76.55;;;27.65;;
25073;SDS011;13066;52.042;5.648;2022-12-18T00:18:57;85.35;;;29.17;;
25073;SDS011;13066;52.042;5.648;2022-12-18T00:21:25;83.13;;;27.15;;
25073;SDS011;13066;52.042;5.648;2022-12-18T00:23:55;78.10;;;28.02;;
25073;SDS011;13066;52.042;5.648;2022-12-18T00:26:24;72.47;;;26.98;;
25073;SDS011;13066;52.042;5.648;2022-12-18T00:28:54;94.07;;;28.60;;
25073;SDS011;13066;52.042;5.648;2022-12-18T00:31:27;75.20;;;26.92;;
25073;SDS011;13066;52.042;5.648;2022-12-18T00:33:55;78.35;;;24.95;;
25073;SDS011;13066;52.042;5.648;2022-12-18T00:36:24;78.70;;;27.08;;
25073;SDS011;13066;52.042;5.648;2022-12-18T00:38:53;69.18;;;26.05;;
25073;SDS011;13066;52.042;5.648;2022-12-18T00:41:22;79.38;;;28.65;;
25073;SDS011;13066;52.042;5.648;2022-12-18T00:44:09;71.65;;;24.10;;
25073;SDS011;13066;52.042;5.648;2022-12-18T00:46:39;76.15;;;26.58;;
25073;SDS011;13066;52.042;5.648;2022-12-18T00:49:07;74.07;;;26.95;;
25073;SDS011;13066;52.042;5.648;2022-12-18T00:51:36;68.82;;;24.67;;
25073;SDS011;13066;52.042;5.648;2022-12-18T00:54:04;85.88;;;28.67;;
25073;SDS011;13066;52.042;5.648;2022-12-18T00:56:32;65.18;;;26.08;;
25073;SDS011;13066;52.042;5.648;2022-12-18T00:59:10;86.35;;;27.15;;
25073;SDS011;13066;52.042;5.648;2022-12-18T01:01:40;76.07;;;26.73;;
25073;SDS011;13066;52.042;5.648;2022-12-18T01:04:09;70.95;;;26.48;;
25073;SDS011;13066;52.042;5.648;2022-12-18T01:06:36;60.55;;;24.10;;
25073;SDS011;13066;52.042;5.648;2022-12-18T01:09:05;70.55;;;25.95;;
25073;SDS011;13066;52.042;5.648;2022-12-18T01:11:33;71.95;;;25.38;;
25073;SDS011;13066;52.042;5.648;2022-12-18T01:14:01;58.25;;;24.35;;
25073;SDS011;13066;52.042;5.648;2022-12-18T01:16:29;67.85;;;24.10;;
25073;SDS011;13066;52.042;5.648;2022-12-18T01:18:58;67.55;;;26.20;;
25073;SDS011;13066;52.042;5.648;2022-12-18T01:21:26;63.40;;;24.10;;
25073;SDS011;13066;52.042;5.648;2022-12-18T01:23:55;63.75;;;24.45;;
25073;SDS011;13066;52.042;5.648;2022-12-18T01:26:24;71.45;;;24.58;;
25073;SDS011;13066;52.042;5.648;2022-12-18T01:28:55;57.17;;;22.23;;
25073;SDS011;13066;52.042;5.648;2022-12-18T01:31:24;65.13;;;22.25;;
25073;SDS011;13066;52.042;5.648;2022-12-18T01:33:53;66.45;;;24.17;;
25073;SDS011;13066;52.042;5.648;2022-12-18T01:36:24;59.17;;;21.73;;
25073;SDS011;13066;52.042;5.648;2022-12-18T01:38:53;61.55;;;23.52;;
25073;SDS011;13066;52.042;5.648;2022-12-18T01:41:23;63.97;;;23.80;;
25073;SDS011;13066;52.042;5.648;2022-12-18T01:43:52;58.95;;;21.92;;
25073;SDS011;13066;52.042;5.648;2022-12-18T01:46:22;48.58;;;21.05;;
25073;SDS011;13066;52.042;5.648;2022-12-18T01:48:51;72.97;;;25.98;;
25073;SDS011;13066;52.042;5.648;2022-12-18T01:51:21;62.42;;;23.40;;
25073;SDS011;13066;52.042;5.648;2022-12-18T01:53:51;53.08;;;21.52;;
25073;SDS011;13066;52.042;5.648;2022-12-18T01:56:19;54.22;;;22.25;;
25073;SDS011;13066;52.042;5.648;2022-12-18T01:58:50;63.75;;;23.85;;
25073;SDS011;13066;52.042;5.648;2022-12-18T02:01:24;54.90;;;22.65;;
25073;SDS011;13066;52.042;5.648;2022-12-18T02:03:53;53.78;;;22.83;;
25073;SDS011;13066;52.042;5.648;2022-12-18T02:06:23;55.20;;;22.05;;
25073;SDS011;13066;52.042;5.648;2022-12-18T02:08:58;58.92;;;23.98;;
25073;SDS011;13066;52.042;5.648;2022-12-18T02:11:34;55.22;;;23.73;;
25073;SDS011;13066;52.042;5.648;2022-12-18T02:14:13;49.42;;;21.20;;
25073;SDS011;13066;52.042;5.648;2022-12-18T02:16:52;59.47;;;21.33;;
25073;SDS011;13066;52.042;5.648;2022-12-18T02:22:24;59.88;;;21.10;;
25073;SDS011;13066;52.042;5.648;2022-12-18T02:24:59;57.72;;;20.25;;
25073;SDS011;13066;52.042;5.648;2022-12-18T02:27:35;48.47;;;21.13;;
25073;SDS011;13066;52.042;5.648;2022-12-18T02:30:05;46.55;;;20.45;;
25073;SDS011;13066;52.042;5.648;2022-12-18T02:32:37;48.45;;;19.52;;
25073;SDS011;13066;52.042;5.648;2022-12-18T02:35:08;45.30;;;17.65;;
25073;SDS011;13066;52.042;5.648;2022-12-18T02:37:39;50.25;;;19.52;;
25073;SDS011;13066;52.042;5.648;2022-12-18T02:40:09;38.90;;;17.40;;
25073;SDS011;13066;52.042;5.648;2022-12-18T02:42:41;49.33;;;18.77;;
25073;SDS011;13066;52.042;5.648;2022-12-18T02:45:09;39.22;;;16.10;;
25073;SDS011;13066;52.042;5.648;2022-12-18T02:47:38;39.88;;;17.17;;
25073;SDS011;13066;52.042;5.648;2022-12-18T02:50:10;45.70;;;16.90;;
25073;SDS011;13066;52.042;5.648;2022-12-18T02:52:47;33.42;;;15.23;;
25073;SDS011;13066;52.042;5.648;2022-12-18T02:55:24;43.70;;;17.58;;
25073;SDS011;13066;52.042;5.648;2022-12-18T02:58:02;41.38;;;17.42;;
25073;SDS011;13066;52.042;5.648;2022-12-18T03:00:35;41.08;;;17.35;;
25073;SDS011;13066;52.042;5.648;2022-12-18T03:03:07;42.47;;;17.02;;
25073;SDS011;13066;52.042;5.648;2022-12-18T03:05:43;40.03;;;16.92;;
25073;SDS011;13066;52.042;5.648;2022-12-18T03:08:15;40.08;;;16.77;;
25073;SDS011;13066;52.042;5.648;2022-12-18T03:10:48;36.88;;;15.20;;
25073;SDS011;13066;52.042;5.648;2022-12-18T03:13:20;39.03;;;16.75;;
25073;SDS011;13066;52.042;5.648;2022-12-18T03:15:53;43.63;;;16.73;;
25073;SDS011;13066;52.042;5.648;2022-12-18T03:18:24;42.08;;;16.42;;
25073;SDS011;13066;52.042;5.648;2022-12-18T03:20:58;40.40;;;16.48;;
25073;SDS011;13066;52.042;5.648;2022-12-18T03:23:32;35.22;;;17.20;;
25073;SDS011;13066;52.042;5.648;2022-12-18T03:26:06;38.70;;;16.85;;
25073;SDS011;13066;52.042;5.648;2022-12-18T03:28:38;37.53;;;16.52;;
25073;SDS011;13066;52.042;5.648;2022-12-18T03:31:09;41.50;;;17.80;;
25073;SDS011;13066;52.042;5.648;2022-12-18T03:33:41;37.85;;;17.17;;
25073;SDS011;13066;52.042;5.648;2022-12-18T03:36:13;37.33;;;16.23;;
25073;SDS011;13066;52.042;5.648;2022-12-18T03:38:41;50.53;;;15.68;;
25073;SDS011;13066;52.042;5.648;2022-12-18T03:41:11;42.70;;;17.17;;
25073;SDS011;13066;52.042;5.648;2022-12-18T03:43:47;38.28;;;15.63;;
25073;SDS011;13066;52.042;5.648;2022-12-18T03:46:22;33.97;;;14.57;;
25073;SDS011;13066;52.042;5.648;2022-12-18T03:48:58;37.22;;;14.40;;
25073;SDS011;13066;52.042;5.648;2022-12-18T03:51:32;32.67;;;14.70;;
25073;SDS011;13066;52.042;5.648;2022-12-18T03:54:06;36.20;;;15.13;;
25073;SDS011;13066;52.042;5.648;2022-12-18T03:56:37;32.08;;;14.50;;
25073;SDS011;13066;52.042;5.648;2022-12-18T03:59:10;36.55;;;15.70;;
25073;SDS011;13066;52.042;5.648;2022-12-18T04:01:40;31.40;;;14.38;;
25073;SDS011;13066;52.042;5.648;2022-12-18T04:04:13;37.58;;;15.25;;
25073;SDS011;13066;52.042;5.648;2022-12-18T04:06:43;31.83;;;14.73;;
25073;SDS011;13066;52.042;5.648;2022-12-18T04:09:12;37.97;;;14.93;;
25073;SDS011;13066;52.042;5.648;2022-12-18T04:11:41;33.03;;;14.30;;
25073;SDS011;13066;52.042;5.648;2022-12-18T04:14:11;41.85;;;15.23;;
25073;SDS011;13066;52.042;5.648;2022-12-18T04:16:43;35.20;;;14.93;;
25073;SDS011;13066;52.042;5.648;2022-12-18T04:19:11;35.63;;;14.43;;
25073;SDS011;13066;52.042;5.648;2022-12-18T04:21:39;35.70;;;14.90;;
25073;SDS011;13066;52.042;5.648;2022-12-18T04:24:07;38.80;;;14.45;;
25073;SDS011;13066;52.042;5.648;2022-12-18T04:26:35;34.67;;;13.60;;
25073;SDS011;13066;52.042;5.648;2022-12-18T04:29:04;32.22;;;15.13;;
25073;SDS011;13066;52.042;5.648;2022-12-18T04:31:33;35.05;;;14.05;;
25073;SDS011;13066;52.042;5.648;2022-12-18T04:34:01;35.95;;;14.35;;
25073;SDS011;13066;52.042;5.648;2022-12-18T04:36:30;27.63;;;13.23;;
25073;SDS011;13066;52.042;5.648;2022-12-18T04:38:58;32.17;;;14.18;;
25073;SDS011;13066;52.042;5.648;2022-12-18T04:41:26;37.67;;;14.15;;
25073;SDS011;13066;52.042;5.648;2022-12-18T04:43:53;33.67;;;14.40;;
25073;SDS011;13066;52.042;5.648;2022-12-18T04:46:21;28.05;;;12.57;;
25073;SDS011;13066;52.042;5.648;2022-12-18T04:48:51;41.58;;;14.02;;
25073;SDS011;13066;52.042;5.648;2022-12-18T04:51:19;31.27;;;12.57;;
25073;SDS011;13066;52.042;5.648;2022-12-18T04:53:52;33.10;;;13.38;;
25073;SDS011;13066;52.042;5.648;2022-12-18T04:56:20;32.53;;;12.23;;
25073;SDS011;13066;52.042;5.648;2022-12-18T04:58:48;32.95;;;13.32;;
25073;SDS011;13066;52.042;5.648;2022-12-18T05:01:16;29.95;;;13.43;;
25073;SDS011;13066;52.042;5.648;2022-12-18T05:03:45;33.55;;;11.75;;
25073;SDS011;13066;52.042;5.648;2022-12-18T05:06:15;29.38;;;12.30;;
25073;SDS011;13066;52.042;5.648;2022-12-18T05:08:43;30.33;;;13.13;;
25073;SDS011;13066;52.042;5.648;2022-12-18T05:11:12;27.77;;;12.23;;
25073;SDS011;13066;52.042;5.648;2022-12-18T05:13:42;34.58;;;11.68;;
25073;SDS011;13066;52.042;5.648;2022-12-18T05:16:10;32.67;;;13.23;;
25073;SDS011;13066;52.042;5.648;2022-12-18T05:18:38;28.45;;;12.55;;
25073;SDS011;13066;52.042;5.648;2022-12-18T05:21:06;32.08;;;12.77;;
25073;SDS011;13066;52.042;5.648;2022-12-18T05:23:35;22.80;;;11.98;;
25073;SDS011;13066;52.042;5.648;2022-12-18T05:26:04;25.45;;;11.88;;
25073;SDS011;13066;52.042;5.648;2022-12-18T05:28:34;29.77;;;12.73;;
25073;SDS011;13066;52.042;5.648;2022-12-18T05:31:03;27.75;;;12.30;;
25073;SDS011;13066;52.042;5.648;2022-12-18T05:33:32;26.75;;;11.65;;
25073;SDS011;13066;52.042;5.648;2022-12-18T05:36:02;27.25;;;11.15;;
25073;SDS011;13066;52.042;5.648;2022-12-18T05:38:32;32.97;;;11.45;;
25073;SDS011;13066;52.042;5.648;2022-12-18T05:41:03;25.67;;;10.65;;
25073;SDS011;13066;52.042;5.648;2022-12-18T05:43:31;27.00;;;11.98;;
25073;SDS011;13066;52.042;5.648;2022-12-18T05:46:06;29.55;;;10.68;;
25073;SDS011;13066;52.042;5.648;2022-12-18T05:48:35;23.92;;;11.95;;
25073;SDS011;13066;52.042;5.648;2022-12-18T05:51:04;27.35;;;11.52;;
25073;SDS011;13066;52.042;5.648;2022-12-18T05:53:33;31.05;;;12.27;;
25073;SDS011;13066;52.042;5.648;2022-12-18T05:56:04;21.70;;;11.65;;
25073;SDS011;13066;52.042;5.648;2022-12-18T05:58:34;24.20;;;12.07;;
25073;SDS011;13066;52.042;5.648;2022-12-18T06:01:06;29.50;;;11.65;;
25073;SDS011;13066;52.042;5.648;2022-12-18T06:03:36;22.25;;;10.82;;
25073;SDS011;13066;52.042;5.648;2022-12-18T06:06:12;28.35;;;10.48;;
25073;SDS011;13066;52.042;5.648;2022-12-18T06:08:41;26.02;;;10.38;;
25073;SDS011;13066;52.042;5.648;2022-12-18T06:11:15;25.80;;;10.43;;
25073;SDS011;13066;52.042;5.648;2022-12-18T06:13:46;25.90;;;9.88;;
25073;SDS011;13066;52.042;5.648;2022-12-18T06:16:23;19.77;;;10.10;;
25073;SDS011;13066;52.042;5.648;2022-12-18T06:18:51;30.55;;;11.65;;
25073;SDS011;13066;52.042;5.648;2022-12-18T06:21:19;25.15;;;11.85;;
25073;SDS011;13066;52.042;5.648;2022-12-18T06:23:47;21.05;;;11.05;;
25073;SDS011;13066;52.042;5.648;2022-12-18T06:26:16;34.00;;;10.68;;
25073;SDS011;13066;52.042;5.648;2022-12-18T06:28:51;26.80;;;10.75;;
25073;SDS011;13066;52.042;5.648;2022-12-18T06:31:19;21.90;;;10.35;;
25073;SDS011;13066;52.042;5.648;2022-12-18T06:33:47;21.88;;;11.00;;
25073;SDS011;13066;52.042;5.648;2022-12-18T06:36:15;22.20;;;10.43;;
25073;SDS011;13066;52.042;5.648;2022-12-18T06:38:43;22.25;;;10.85;;
25073;SDS011;13066;52.042;5.648;2022-12-18T06:41:12;23.55;;;10.25;;
25073;SDS011;13066;52.042;5.648;2022-12-18T06:43:42;24.92;;;10.48;;
25073;SDS011;13066;52.042;5.648;2022-12-18T06:46:11;22.83;;;11.35;;
25073;SDS011;13066;52.042;5.648;2022-12-18T06:48:40;24.10;;;11.93;;
25073;SDS011;13066;52.042;5.648;2022-12-18T06:51:07;21.30;;;11.02;;
25073;SDS011;13066;52.042;5.648;2022-12-18T06:53:35;25.10;;;11.07;;
25073;SDS011;13066;52.042;5.648;2022-12-18T06:56:05;23.75;;;10.57;;
25073;SDS011;13066;52.042;5.648;2022-12-18T06:58:36;20.27;;;11.07;;
25073;SDS011;13066;52.042;5.648;2022-12-18T07:01:06;21.65;;;10.57;;
25073;SDS011;13066;52.042;5.648;2022-12-18T07:03:36;19.98;;;10.68;;
25073;SDS011;13066;52.042;5.648;2022-12-18T07:06:05;23.73;;;11.13;;
25073;SDS011;13066;52.042;5.648;2022-12-18T07:08:34;24.05;;;10.93;;
25073;SDS011;13066;52.042;5.648;2022-12-18T07:11:02;32.40;;;10.25;;
25073;SDS011;13066;52.042;5.648;2022-12-18T07:13:31;20.15;;;10.98;;
25073;SDS011;13066;52.042;5.648;2022-12-18T07:16:03;19.75;;;10.25;;
25073;SDS011;13066;52.042;5.648;2022-12-18T07:18:41;26.58;;;11.00;;
25073;SDS011;13066;52.042;5.648;2022-12-18T07:21:10;30.65;;;11.15;;
25073;SDS011;13066;52.042;5.648;2022-12-18T07:23:41;19.40;;;10.02;;
25073;SDS011;13066;52.042;5.648;2022-12-18T07:26:10;19.17;;;11.10;;
25073;SDS011;13066;52.042;5.648;2022-12-18T07:28:39;27.27;;;11.30;;
25073;SDS011;13066;52.042;5.648;2022-12-18T07:31:10;26.17;;;11.82;;
25073;SDS011;13066;52.042;5.648;2022-12-18T07:33:39;24.20;;;12.43;;
25073;SDS011;13066;52.042;5.648;2022-12-18T07:36:09;21.13;;;10.55;;
25073;SDS011;13066;52.042;5.648;2022-12-18T07:38:37;26.10;;;11.95;;
25073;SDS011;13066;52.042;5.648;2022-12-18T07:41:06;27.30;;;11.40;;
25073;SDS011;13066;52.042;5.648;2022-12-18T07:43:36;22.08;;;11.30;;
25073;SDS011;13066;52.042;5.648;2022-12-18T07:46:06;30.30;;;12.52;;
25073;SDS011;13066;52.042;5.648;2022-12-18T07:48:38;21.98;;;10.13;;
25073;SDS011;13066;52.042;5.648;2022-12-18T07:51:07;28.42;;;11.20;;
25073;SDS011;13066;52.042;5.648;2022-12-18T07:53:35;28.70;;;12.20;;
25073;SDS011;13066;52.042;5.648;2022-12-18T07:56:05;26.75;;;10.40;;
25073;SDS011;13066;52.042;5.648;2022-12-18T07:58:53;25.50;;;11.90;;
25073;SDS011;13066;52.042;5.648;2022-12-18T08:01:21;23.75;;;10.45;;
25073;SDS011;13066;52.042;5.648;2022-12-18T08:03:51;21.90;;;11.65;;
25073;SDS011;13066;52.042;5.648;2022-12-18T08:06:19;21.90;;;10.05;;
25073;SDS011;13066;52.042;5.648;2022-12-18T08:08:50;21.55;;;10.45;;
25073;SDS011;13066;52.042;5.648;2022-12-18T08:11:18;26.10;;;11.68;;
25073;SDS011;13066;52.042;5.648;2022-12-18T08:13:47;24.80;;;11.38;;
25073;SDS011;13066;52.042;5.648;2022-12-18T08:16:15;22.67;;;10.85;;
25073;SDS011;13066;52.042;5.648;2022-12-18T08:18:44;25.50;;;11.70;;
25073;SDS011;13066;52.042;5.648;2022-12-18T08:21:14;25.83;;;10.55;;
25073;SDS011;13066;52.042;5.648;2022-12-18T08:23:46;25.58;;;11.75;;
25073;SDS011;13066;52.042;5.648;2022-12-18T08:26:14;23.80;;;10.30;;
25073;SDS011;13066;52.042;5.648;2022-12-18T08:28:44;25.20;;;10.70;;
25073;SDS011;13066;52.042;5.648;2022-12-18T08:31:12;18.45;;;9.68;;
25073;SDS011;13066;52.042;5.648;2022-12-18T08:33:41;22.65;;;10.68;;
25073;SDS011;13066;52.042;5.648;2022-12-18T08:36:09;20.70;;;9.60;;
25073;SDS011;13066;52.042;5.648;2022-12-18T08:38:39;26.58;;;11.68;;
25073;SDS011;13066;52.042;5.648;2022-12-18T08:41:07;23.92;;;10.40;;
25073;SDS011;13066;52.042;5.648;2022-12-18T08:43:37;22.52;;;10.38;;
25073;SDS011;13066;52.042;5.648;2022-12-18T08:46:23;23.35;;;9.75;;
25073;SDS011;13066;52.042;5.648;2022-12-18T08:48:54;23.75;;;10.60;;
25073;SDS011;13066;52.042;5.648;2022-12-18T08:51:22;19.02;;;10.20;;
25073;SDS011;13066;52.042;5.648;2022-12-18T08:53:51;20.80;;;10.20;;
25073;SDS011;13066;52.042;5.648;2022-12-18T08:56:19;21.25;;;9.85;;
25073;SDS011;13066;52.042;5.648;2022-12-18T08:58:47;20.90;;;10.05;;
25073;SDS011;13066;52.042;5.648;2022-12-18T09:01:19;24.98;;;10.30;;
25073;SDS011;13066;52.042;5.648;2022-12-18T09:03:47;19.42;;;10.07;;
25073;SDS011;13066;52.042;5.648;2022-12-18T09:06:17;23.67;;;10.73;;
25073;SDS011;13066;52.042;5.648;2022-12-18T09:08:48;17.80;;;10.20;;
25073;SDS011;13066;52.042;5.648;2022-12-18T09:11:20;25.88;;;10.93;;
25073;SDS011;13066;52.042;5.648;2022-12-18T09:13:49;19.90;;;10.82;;
25073;SDS011;13066;52.042;5.648;2022-12-18T09:16:17;20.13;;;10.57;;
25073;SDS011;13066;52.042;5.648;2022-12-18T09:18:45;20.25;;;10.32;;
25073;SDS011;13066;52.042;5.648;2022-12-18T09:21:15;18.35;;;9.52;;
25073;SDS011;13066;52.042;5.648;2022-12-18T09:23:48;21.38;;;10.05;;
25073;SDS011;13066;52.042;5.648;2022-12-18T09:26:17;18.52;;;9.77;;
25073;SDS011;13066;52.042;5.648;2022-12-18T09:28:46;23.40;;;9.20;;
25073;SDS011;13066;52.042;5.648;2022-12-18T09:31:14;22.63;;;9.60;;
25073;SDS011;13066;52.042;5.648;2022-12-18T09:33:43;16.90;;;8.77;;
25073;SDS011;13066;52.042;5.648;2022-12-18T09:36:12;20.15;;;9.82;;
25073;SDS011;13066;52.042;5.648;2022-12-18T09:38:43;27.90;;;10.23;;
25073;SDS011;13066;52.042;5.648;2022-12-18T09:41:17;19.65;;;9.38;;
25073;SDS011;13066;52.042;5.648;2022-12-18T09:44:00;19.73;;;9.07;;
25073;SDS011;13066;52.042;5.648;2022-12-18T09:46:32;25.10;;;9.32;;
25073;SDS011;13066;52.042;5.648;2022-12-18T09:49:05;19.55;;;8.98;;
25073;SDS011;13066;52.042;5.648;2022-12-18T09:51:44;20.65;;;9.48;;
25073;SDS011;13066;52.042;5.648;2022-12-18T09:54:18;18.70;;;9.55;;
25073;SDS011;13066;52.042;5.648;2022-12-18T09:56:49;18.90;;;8.63;;
25073;SDS011;13066;52.042;5.648;2022-12-18T09:59:23;19.85;;;9.13;;
25073;SDS011;13066;52.042;5.648;2022-12-18T10:01:53;23.42;;;9.77;;
25073;SDS011;13066;52.042;5.648;2022-12-18T10:04:21;20.85;;;8.95;;
25073;SDS011;13066;52.042;5.648;2022-12-18T10:06:52;18.92;;;8.90;;
25073;SDS011;13066;52.042;5.648;2022-12-18T10:09:26;22.02;;;10.23;;
25073;SDS011;13066;52.042;5.648;2022-12-18T10:12:00;20.08;;;8.73;;
25073;SDS011;13066;52.042;5.648;2022-12-18T10:14:40;18.83;;;8.50;;
25073;SDS011;13066;52.042;5.648;2022-12-18T10:17:14;20.17;;;9.88;;
25073;SDS011;13066;52.042;5.648;2022-12-18T10:19:50;19.88;;;9.43;;
25073;SDS011;13066;52.042;5.648;2022-12-18T10:22:24;14.32;;;7.65;;
25073;SDS011;13066;52.042;5.648;2022-12-18T10:25:02;23.58;;;8.40;;
25073;SDS011;13066;52.042;5.648;2022-12-18T10:27:34;19.95;;;8.73;;
25073;SDS011;13066;52.042;5.648;2022-12-18T10:30:07;19.00;;;8.93;;
25073;SDS011;13066;52.042;5.648;2022-12-18T10:32:41;21.77;;;8.63;;
25073;SDS011;13066;52.042;5.648;2022-12-18T10:35:11;20.58;;;9.75;;
25073;SDS011;13066;52.042;5.648;2022-12-18T10:38:01;18.55;;;9.18;;
25073;SDS011;13066;52.042;5.648;2022-12-18T10:40:30;18.77;;;8.23;;
25073;SDS011;13066;52.042;5.648;2022-12-18T10:43:09;20.50;;;9.57;;
25073;SDS011;13066;52.042;5.648;2022-12-18T10:45:40;18.67;;;8.82;;
25073;SDS011;13066;52.042;5.648;2022-12-18T10:48:17;18.65;;;8.43;;
25073;SDS011;13066;52.042;5.648;2022-12-18T10:50:47;16.15;;;8.45;;
25073;SDS011;13066;52.042;5.648;2022-12-18T10:53:38;18.38;;;9.63;;
25073;SDS011;13066;52.042;5.648;2022-12-18T10:56:09;21.48;;;9.95;;
25073;SDS011;13066;52.042;5.648;2022-12-18T10:58:38;19.08;;;8.95;;
25073;SDS011;13066;52.042;5.648;2022-12-18T11:01:09;18.52;;;9.02;;
25073;SDS011;13066;52.042;5.648;2022-12-18T11:03:39;25.73;;;12.20;;
25073;SDS011;13066;52.042;5.648;2022-12-18T11:06:10;20.67;;;10.00;;
25073;SDS011;13066;52.042;5.648;2022-12-18T11:08:39;24.40;;;12.40;;
25073;SDS011;13066;52.042;5.648;2022-12-18T11:11:15;24.50;;;10.18;;
25073;SDS011;13066;52.042;5.648;2022-12-18T11:13:51;18.23;;;10.00;;
25073;SDS011;13066;52.042;5.648;2022-12-18T11:16:28;22.83;;;11.52;;
25073;SDS011;13066;52.042;5.648;2022-12-18T11:21:50;23.08;;;10.95;;
25073;SDS011;13066;52.042;5.648;2022-12-18T11:24:19;20.38;;;9.18;;
25073;SDS011;13066;52.042;5.648;2022-12-18T11:26:52;22.23;;;9.68;;
25073;SDS011;13066;52.042;5.648;2022-12-18T11:29:28;19.75;;;10.65;;
25073;SDS011;13066;52.042;5.648;2022-12-18T11:32:19;25.52;;;10.57;;
25073;SDS011;13066;52.042;5.648;2022-12-18T11:34:55;22.40;;;9.35;;
25073;SDS011;13066;52.042;5.648;2022-12-18T11:37:28;20.77;;;9.32;;
25073;SDS011;13066;52.042;5.648;2022-12-18T11:40:00;21.08;;;10.25;;
25073;SDS011;13066;52.042;5.648;2022-12-18T11:42:34;19.42;;;9.30;;
25073;SDS011;13066;52.042;5.648;2022-12-18T11:45:21;22.30;;;10.35;;
25073;SDS011;13066;52.042;5.648;2022-12-18T11:47:56;21.75;;;9.50;;
25073;SDS011;13066;52.042;5.648;2022-12-18T11:50:30;19.58;;;9.40;;
25073;SDS011;13066;52.042;5.648;2022-12-18T11:53:08;17.92;;;8.80;;
25073;SDS011;13066;52.042;5.648;2022-12-18T11:55:39;16.65;;;9.80;;
25073;SDS011;13066;52.042;5.648;2022-12-18T11:58:16;22.33;;;9.55;;
25073;SDS011;13066;52.042;5.648;2022-12-18T12:00:58;21.67;;;9.25;;
25073;SDS011;13066;52.042;5.648;2022-12-18T12:06:29;21.38;;;9.25;;
25073;SDS011;13066;52.042;5.648;2022-12-18T12:09:05;20.55;;;10.30;;
25073;SDS011;13066;52.042;5.648;2022-12-18T12:11:43;29.50;;;12.20;;
25073;SDS011;13066;52.042;5.648;2022-12-18T12:14:26;27.33;;;10.77;;
25073;SDS011;13066;52.042;5.648;2022-12-18T12:17:05;21.42;;;10.35;;
25073;SDS011;13066;52.042;5.648;2022-12-18T12:19:44;24.33;;;10.48;;
25073;SDS011;13066;52.042;5.648;2022-12-18T12:22:22;24.33;;;10.80;;
25073;SDS011;13066;52.042;5.648;2022-12-18T12:25:04;26.58;;;10.90;;
25073;SDS011;13066;52.042;5.648;2022-12-18T12:30:18;23.70;;;9.95;;
25073;SDS011;13066;52.042;5.648;2022-12-18T12:32:51;23.10;;;10.30;;
25073;SDS011;13066;52.042;5.648;2022-12-18T12:35:31;21.80;;;9.73;;
25073;SDS011;13066;52.042;5.648;2022-12-18T12:38:11;20.33;;;9.77;;
25073;SDS011;13066;52.042;5.648;2022-12-18T12:40:42;22.85;;;10.13;;
25073;SDS011;13066;52.042;5.648;2022-12-18T12:43:22;17.88;;;9.75;;
25073;SDS011;13066;52.042;5.648;2022-12-18T12:45:55;27.30;;;11.35;;
25073;SDS011;13066;52.042;5.648;2022-12-18T12:48:37;20.85;;;9.73;;
25073;SDS011;13066;52.042;5.648;2022-12-18T12:51:16;20.58;;;9.98;;
25073;SDS011;13066;52.042;5.648;2022-12-18T12:53:47;19.42;;;10.00;;
25073;SDS011;13066;52.042;5.648;2022-12-18T12:56:16;18.90;;;9.25;;
25073;SDS011;13066;52.042;5.648;2022-12-18T12:58:49;21.08;;;10.13;;
25073;SDS011;13066;52.042;5.648;2022-12-18T13:01:25;19.67;;;9.75;;
25073;SDS011;13066;52.042;5.648;2022-12-18T13:04:03;23.13;;;9.75;;
25073;SDS011;13066;52.042;5.648;2022-12-18T13:06:46;20.60;;;9.30;;
25073;SDS011;13066;52.042;5.648;2022-12-18T13:09:21;19.42;;;10.13;;
25073;SDS011;13066;52.042;5.648;2022-12-18T13:11:49;20.80;;;10.05;;
25073;SDS011;13066;52.042;5.648;2022-12-18T13:14:35;22.52;;;10.15;;
25073;SDS011;13066;52.042;5.648;2022-12-18T13:17:16;22.60;;;10.52;;
25073;SDS011;13066;52.042;5.648;2022-12-18T13:20:02;21.13;;;10.23;;
25073;SDS011;13066;52.042;5.648;2022-12-18T13:22:37;24.17;;;10.18;;
25073;SDS011;13066;52.042;5.648;2022-12-18T13:27:59;21.85;;;10.30;;
25073;SDS011;13066;52.042;5.648;2022-12-18T13:30:46;21.15;;;10.00;;
25073;SDS011;13066;52.042;5.648;2022-12-18T13:33:38;22.02;;;10.43;;
25073;SDS011;13066;52.042;5.648;2022-12-18T13:36:30;27.30;;;10.20;;
25073;SDS011;13066;52.042;5.648;2022-12-18T13:45:35;21.38;;;9.45;;
25073;SDS011;13066;52.042;5.648;2022-12-18T13:48:11;20.63;;;10.18;;
25073;SDS011;13066;52.042;5.648;2022-12-18T13:50:55;21.02;;;9.95;;
25073;SDS011;13066;52.042;5.648;2022-12-18T13:53:28;22.42;;;10.07;;
25073;SDS011;13066;52.042;5.648;2022-12-18T13:56:02;23.58;;;10.52;;
25073;SDS011;13066;52.042;5.648;2022-12-18T13:58:31;22.88;;;11.07;;
25073;SDS011;13066;52.042;5.648;2022-12-18T14:00:59;22.55;;;11.13;;
25073;SDS011;13066;52.042;5.648;2022-12-18T14:03:29;25.73;;;11.75;;
25073;SDS011;13066;52.042;5.648;2022-12-18T14:06:02;24.33;;;11.20;;
25073;SDS011;13066;52.042;5.648;2022-12-18T14:08:34;22.10;;;10.45;;
25073;SDS011;13066;52.042;5.648;2022-12-18T14:11:08;22.27;;;11.23;;
25073;SDS011;13066;52.042;5.648;2022-12-18T14:13:48;21.67;;;10.05;;
25073;SDS011;13066;52.042;5.648;2022-12-18T14:16:16;21.95;;;11.18;;
25073;SDS011;13066;52.042;5.648;2022-12-18T14:18:45;24.05;;;11.13;;
25073;SDS011;13066;52.042;5.648;2022-12-18T14:21:17;29.02;;;12.05;;
25073;SDS011;13066;52.042;5.648;2022-12-18T14:23:49;24.08;;;10.68;;
25073;SDS011;13066;52.042;5.648;2022-12-18T14:26:32;22.98;;;11.52;;
25073;SDS011;13066;52.042;5.648;2022-12-18T14:29:01;25.00;;;10.80;;
25073;SDS011;13066;52.042;5.648;2022-12-18T14:31:50;26.75;;;12.40;;
25073;SDS011;13066;52.042;5.648;2022-12-18T14:34:40;25.00;;;11.60;;
25073;SDS011;13066;52.042;5.648;2022-12-18T14:37:09;21.23;;;11.07;;
25073;SDS011;13066;52.042;5.648;2022-12-18T14:39:38;22.20;;;10.50;;
25073;SDS011;13066;52.042;5.648;2022-12-18T14:42:11;28.83;;;11.63;;
25073;SDS011;13066;52.042;5.648;2022-12-18T14:44:39;25.30;;;11.10;;
25073;SDS011;13066;52.042;5.648;2022-12-18T14:47:27;21.23;;;10.23;;
25073;SDS011;13066;52.042;5.648;2022-12-18T14:49:54;24.60;;;11.05;;
25073;SDS011;13066;52.042;5.648;2022-12-18T14:52:23;23.40;;;10.63;;
25073;SDS011;13066;52.042;5.648;2022-12-18T14:54:54;30.50;;;10.77;;
25073;SDS011;13066;52.042;5.648;2022-12-18T14:57:24;25.75;;;11.63;;
25073;SDS011;13066;52.042;5.648;2022-12-18T15:00:04;23.70;;;11.82;;
25073;SDS011;13066;52.042;5.648;2022-12-18T15:02:34;24.20;;;11.15;;
25073;SDS011;13066;52.042;5.648;2022-12-18T15:05:04;23.98;;;10.73;;
25073;SDS011;13066;52.042;5.648;2022-12-18T15:07:43;22.58;;;11.27;;
25073;SDS011;13066;52.042;5.648;2022-12-18T15:10:13;26.17;;;14.25;;
25073;SDS011;13066;52.042;5.648;2022-12-18T15:12:44;26.20;;;11.65;;